createdAt,value
2022-09-17T00:00:49.078Z,1.15
2022-09-17T00:02:56.699Z,0.88
2022-09-17T00:05:00.216Z,0.90
2022-09-17T00:07:05.098Z,1.42
2022-09-17T00:09:09.322Z,1.05
2022-09-17T00:11:35.609Z,0.88
2022-09-17T00:13:39.647Z,1.10
2022-09-17T00:15:48.107Z,1.10
2022-09-17T00:17:55.891Z,0.90
2022-09-17T00:19:57.975Z,1.10
2022-09-17T00:22:00.237Z,0.90
2022-09-17T00:24:06.857Z,0.90
2022-09-17T00:26:09.468Z,1.10
2022-09-17T00:28:13.419Z,1.10
2022-09-17T00:30:15.111Z,1.00
2022-09-17T00:32:16.695Z,0.90
2022-09-17T00:34:18.331Z,0.90
2022-09-17T00:36:21.075Z,0.90
2022-09-17T00:38:22.643Z,1.00
2022-09-17T00:40:24.527Z,0.82
2022-09-17T00:42:26.372Z,0.90
2022-09-17T00:44:47.198Z,0.80
2022-09-17T00:46:49.345Z,0.90
2022-09-17T00:48:53.877Z,0.80
2022-09-17T00:50:56.419Z,1.17
2022-09-17T00:53:05.349Z,0.80
2022-09-17T00:55:23.498Z,0.77
2022-09-17T00:57:25.356Z,0.75
2022-09-17T00:59:27.208Z,0.77
2022-09-17T01:01:29.297Z,0.88
2022-09-17T01:03:30.995Z,0.82
2022-09-17T01:05:45.826Z,1.17
2022-09-17T01:08:10.274Z,1.30
2022-09-17T01:10:33.816Z,0.90
2022-09-17T01:12:51.513Z,1.23
2022-09-17T01:15:01.838Z,0.80
2022-09-17T01:17:41.364Z,0.93
2022-09-17T01:19:46.072Z,1.05
2022-09-17T01:22:04.273Z,1.08
2022-09-17T01:24:27.539Z,0.90
2022-09-17T01:26:59.876Z,1.20
2022-09-17T01:29:38.334Z,1.15
2022-09-17T01:32:09.441Z,1.20
2022-09-17T01:34:22.416Z,0.93
2022-09-17T01:36:58.380Z,1.00
2022-09-17T01:39:14.604Z,0.98
2022-09-17T01:41:42.185Z,1.20
2022-09-17T01:43:57.048Z,1.23
2022-09-17T01:46:13.019Z,1.23
2022-09-17T01:48:21.769Z,1.15
2022-09-17T01:50:29.967Z,1.67
2022-09-17T01:52:34.216Z,1.20
2022-09-17T01:54:42.643Z,1.63
2022-09-17T01:56:51.560Z,1.05
2022-09-17T01:58:58.423Z,1.20
2022-09-17T02:01:03.710Z,0.98
2022-09-17T02:03:23.419Z,1.20
2022-09-17T02:05:31.320Z,1.10
2022-09-17T02:07:37.484Z,1.10
2022-09-17T02:09:43.793Z,1.20
2022-09-17T02:11:51.425Z,1.13
2022-09-17T02:14:13.039Z,1.17
2022-09-17T02:16:29.443Z,1.20
2022-09-17T02:18:40.414Z,1.25
2022-09-17T02:20:51.335Z,1.15
2022-09-17T02:22:56.871Z,1.27
2022-09-17T02:25:17.059Z,1.23
2022-09-17T02:27:24.919Z,1.08
2022-09-17T02:29:33.144Z,1.00
2022-09-17T02:31:35.480Z,1.20
2022-09-17T02:33:38.244Z,0.80
2022-09-17T02:35:39.866Z,1.10
2022-09-17T02:37:42.325Z,1.08
2022-09-17T02:39:44.076Z,1.10
2022-09-17T02:41:51.465Z,1.00
2022-09-17T02:44:13.996Z,1.00
2022-09-17T02:46:25.727Z,1.38
2022-09-17T02:48:46.120Z,1.10
2022-09-17T02:51:24.893Z,1.40
2022-09-17T02:53:32.370Z,1.52
2022-09-17T02:55:50.436Z,1.20
2022-09-17T02:58:01.378Z,1.17
2022-09-17T03:00:06.663Z,1.40
2022-09-17T03:02:30.510Z,1.00
2022-09-17T03:04:32.550Z,1.20
2022-09-17T03:06:34.247Z,1.13
2022-09-17T03:08:40.191Z,1.15
2022-09-17T03:10:41.853Z,1.50
2022-09-17T03:12:43.636Z,1.30
2022-09-17T03:14:45.293Z,1.08
2022-09-17T03:16:47.237Z,1.40
2022-09-17T03:18:48.930Z,1.35
2022-09-17T03:20:50.522Z,1.15
2022-09-17T03:22:52.428Z,1.30
2022-09-17T03:24:54.110Z,1.40
2022-09-17T03:26:55.725Z,1.50
2022-09-17T03:28:58.731Z,1.50
2022-09-17T03:31:00.540Z,1.50
2022-09-17T03:33:02.192Z,1.10
2022-09-17T03:35:03.995Z,1.10
2022-09-17T03:37:05.673Z,1.17
2022-09-17T03:39:07.382Z,1.20
2022-09-17T03:41:08.986Z,1.38
2022-09-17T03:43:10.714Z,1.60
2022-09-17T03:45:12.423Z,1.45
2022-09-17T03:47:16.829Z,1.10
2022-09-17T03:49:18.678Z,1.00
2022-09-17T03:51:20.366Z,1.85
2022-09-17T03:53:22.004Z,1.65
2022-09-17T03:55:23.650Z,1.48
2022-09-17T03:57:25.214Z,1.48
2022-09-17T03:59:27.500Z,0.98
2022-09-17T04:01:29.555Z,1.20
2022-09-17T04:03:32.044Z,1.25
2022-09-17T04:05:33.926Z,1.52
2022-09-17T04:07:35.546Z,1.73
2022-09-17T04:09:37.178Z,1.00
2022-09-17T04:11:39.071Z,1.38
2022-09-17T04:13:40.704Z,1.67
2022-09-17T04:15:42.815Z,1.30
2022-09-17T04:17:44.474Z,1.20
2022-09-17T04:19:46.125Z,1.40
2022-09-17T04:21:47.814Z,1.50
2022-09-17T04:23:49.443Z,1.30
2022-09-17T04:25:51.096Z,1.23
2022-09-17T04:27:52.733Z,1.48
2022-09-17T04:29:54.366Z,1.20
2022-09-17T04:31:55.950Z,1.63
2022-09-17T04:33:57.809Z,1.40
2022-09-17T04:35:59.414Z,1.92
2022-09-17T04:38:01.211Z,1.85
2022-09-17T04:40:07.695Z,2.25
2022-09-17T04:42:09.834Z,1.83
2022-09-17T04:44:11.570Z,1.60
2022-09-17T04:46:14.331Z,1.40
2022-09-17T04:48:16.110Z,1.80
2022-09-17T04:50:19.467Z,1.50
2022-09-17T04:52:21.072Z,1.40
2022-09-17T04:54:23.048Z,1.80
2022-09-17T04:56:24.723Z,2.42
2022-09-17T04:58:26.466Z,1.83
2022-09-17T05:00:28.090Z,2.30
2022-09-17T05:02:30.017Z,1.23
2022-09-17T05:04:31.687Z,1.40
2022-09-17T05:06:33.285Z,1.58
2022-09-17T05:08:35.399Z,1.67
2022-09-17T05:10:37.070Z,1.60
2022-09-17T05:12:38.713Z,1.75
2022-09-17T05:14:40.407Z,2.15
2022-09-17T05:16:42.024Z,1.70
2022-09-17T05:18:43.680Z,1.95
2022-09-17T05:20:45.362Z,1.10
2022-09-17T05:22:49.088Z,1.50
2022-09-17T05:24:50.804Z,1.75
2022-09-17T05:26:52.409Z,1.55
2022-09-17T05:28:54.071Z,1.90
2022-09-17T05:30:59.203Z,1.90
2022-09-17T05:33:02.229Z,4.65
2022-09-17T05:35:05.752Z,1.90
2022-09-17T05:37:12.825Z,1.58
2022-09-17T05:39:14.589Z,1.77
2022-09-17T05:41:16.190Z,2.22
2022-09-17T05:43:18.109Z,1.85
2022-09-17T05:45:19.722Z,1.80
2022-09-17T05:47:21.441Z,1.52
2022-09-17T05:49:23.133Z,2.42
2022-09-17T05:51:24.843Z,2.42
2022-09-17T05:53:26.509Z,3.03
2022-09-17T05:55:28.702Z,1.75
2022-09-17T05:57:30.652Z,2.40
2022-09-17T05:59:32.391Z,2.28
2022-09-17T06:01:34.064Z,1.75
2022-09-17T06:03:35.820Z,2.38
2022-09-17T06:05:37.532Z,1.75
2022-09-17T06:07:39.551Z,2.00
2022-09-17T06:09:41.221Z,3.70
2022-09-17T06:11:42.803Z,1.92
2022-09-17T06:13:44.522Z,2.30
2022-09-17T06:15:53.471Z,2.03
2022-09-17T06:17:55.179Z,1.63
2022-09-17T06:19:56.907Z,1.73
2022-09-17T06:21:58.580Z,1.88
2022-09-17T06:24:01.051Z,2.15
2022-09-17T06:26:04.052Z,2.33
2022-09-17T06:28:05.961Z,3.13
2022-09-17T06:30:07.816Z,1.83
2022-09-17T06:32:13.177Z,1.80
2022-09-17T06:34:14.837Z,1.98
2022-09-17T06:36:16.561Z,2.20
2022-09-17T06:38:18.136Z,2.65
2022-09-17T06:40:19.866Z,2.08
2022-09-17T06:42:21.695Z,2.10
2022-09-17T06:44:23.471Z,2.28
2022-09-17T06:46:25.278Z,2.05
2022-09-17T06:48:27.834Z,2.15
2022-09-17T06:50:29.512Z,1.70
2022-09-17T06:52:31.161Z,1.63
2022-09-17T06:54:32.810Z,2.10
2022-09-17T06:56:34.474Z,2.38
2022-09-17T06:58:42.041Z,1.90
2022-09-17T07:00:43.910Z,1.85
2022-09-17T07:02:55.431Z,1.85
2022-09-17T07:04:57.230Z,1.90
2022-09-17T07:06:58.851Z,2.58
2022-09-17T07:09:00.776Z,1.90
2022-09-17T07:11:02.626Z,1.35
2022-09-17T07:13:04.430Z,2.65
2022-09-17T07:15:06.691Z,2.28
2022-09-17T07:17:08.298Z,1.75
2022-09-17T07:19:11.164Z,1.80
2022-09-17T07:21:12.902Z,1.67
2022-09-17T07:23:14.525Z,1.77
2022-09-17T07:25:16.496Z,1.80
2022-09-17T07:27:18.373Z,1.55
2022-09-17T07:29:26.335Z,2.10
2022-09-17T07:31:28.099Z,1.20
2022-09-17T07:33:29.863Z,1.55
2022-09-17T07:35:31.699Z,2.03
2022-09-17T07:37:33.629Z,1.85
2022-09-17T07:39:35.740Z,1.50
2022-09-17T07:41:37.805Z,1.50
2022-09-17T07:43:39.877Z,1.67
2022-09-17T07:45:41.707Z,1.90
2022-09-17T07:47:44.411Z,1.42
2022-09-17T07:49:46.181Z,1.45
2022-09-17T07:51:51.328Z,1.50
2022-09-17T07:53:53.792Z,1.45
2022-09-17T07:55:57.047Z,1.77
2022-09-17T07:57:58.669Z,1.75
2022-09-17T08:00:00.407Z,2.20
2022-09-17T08:02:02.217Z,1.50
2022-09-17T08:04:07.032Z,1.85
2022-09-17T08:06:14.661Z,1.65
2022-09-17T08:08:20.923Z,1.20
2022-09-17T08:10:23.387Z,1.90
2022-09-17T08:12:29.240Z,2.10
2022-09-17T08:14:31.117Z,1.20
2022-09-17T08:16:32.792Z,1.40
2022-09-17T08:18:35.838Z,1.00
2022-09-17T08:20:37.462Z,0.93
2022-09-17T08:22:39.246Z,1.02
2022-09-17T08:24:42.587Z,0.88
2022-09-17T08:26:44.516Z,1.15
2022-09-17T08:28:51.563Z,0.90
2022-09-17T08:30:53.404Z,0.90
2022-09-17T08:32:58.906Z,1.27
2022-09-17T08:35:00.581Z,0.90
2022-09-17T08:37:03.123Z,0.75
2022-09-17T08:39:04.814Z,1.10
2022-09-17T08:41:25.019Z,0.90
2022-09-17T08:43:27.833Z,1.35
2022-09-17T08:45:30.080Z,0.82
2022-09-17T08:47:36.548Z,1.08
2022-09-17T08:49:59.303Z,1.08
2022-09-17T08:52:25.266Z,0.70
2022-09-17T08:54:37.101Z,0.93
2022-09-17T08:56:39.610Z,0.80
2022-09-17T08:59:02.873Z,0.57
2022-09-17T09:01:33.559Z,0.90
2022-09-17T09:03:44.875Z,0.85
2022-09-17T09:05:48.541Z,0.88
2022-09-17T09:07:55.434Z,0.80
2022-09-17T09:10:06.714Z,0.93
2022-09-17T09:12:25.325Z,0.75
2022-09-17T09:15:05.740Z,0.70
2022-09-17T09:17:09.374Z,1.60
2022-09-17T09:19:27.009Z,0.90
2022-09-17T09:21:32.223Z,1.10
2022-09-17T09:24:04.453Z,0.95
2022-09-17T09:26:22.757Z,1.23
2022-09-17T09:28:36.688Z,0.77
2022-09-17T09:30:51.869Z,1.33
2022-09-17T09:33:13.418Z,0.95
2022-09-17T09:35:16.814Z,1.08
2022-09-17T09:37:23.952Z,0.90
2022-09-17T09:39:36.259Z,0.85
2022-09-17T09:41:46.682Z,1.30
2022-09-17T09:44:03.605Z,0.93
2022-09-17T09:46:50.790Z,0.85
2022-09-17T09:49:02.007Z,1.05
2022-09-17T09:51:10.069Z,1.25
2022-09-17T09:53:17.444Z,0.88
2022-09-17T09:55:29.888Z,1.00
2022-09-17T09:57:44.874Z,0.90
2022-09-17T09:59:46.682Z,2.10
2022-09-17T10:01:48.426Z,2.67
2022-09-17T10:03:52.729Z,2.00
2022-09-17T10:05:58.471Z,1.38
2022-09-17T10:08:00.568Z,3.10
2022-09-17T10:10:10.440Z,1.98
2022-09-17T10:12:12.050Z,1.92
2022-09-17T10:14:19.736Z,1.63
2022-09-17T10:16:26.757Z,1.25
2022-09-17T10:18:28.482Z,1.00
2022-09-17T10:20:30.194Z,1.90
2022-09-17T10:22:47.395Z,0.95
2022-09-17T10:24:49.223Z,2.28
2022-09-17T10:26:51.770Z,1.50
2022-09-17T10:29:12.180Z,1.05
2022-09-17T10:31:14.014Z,1.10
2022-09-17T10:33:19.995Z,1.00
2022-09-17T10:35:22.173Z,0.85
2022-09-17T10:37:32.917Z,1.02
2022-09-17T10:39:36.717Z,0.98
2022-09-17T10:41:54.427Z,0.80
2022-09-17T10:43:56.154Z,1.30
2022-09-17T10:46:00.112Z,0.90
2022-09-17T10:48:02.308Z,1.00
2022-09-17T10:50:19.259Z,1.15
2022-09-17T10:52:24.998Z,1.50
2022-09-17T10:54:35.619Z,1.60
2022-09-17T10:56:38.343Z,1.00
2022-09-17T10:59:04.271Z,2.03
2022-09-17T11:01:08.724Z,0.82
2022-09-17T11:03:34.777Z,1.05
2022-09-17T11:05:54.796Z,0.90
2022-09-17T11:08:04.528Z,1.15
2022-09-17T11:10:37.043Z,0.95
2022-09-17T11:12:55.048Z,1.10
2022-09-17T11:14:56.892Z,0.90
2022-09-17T11:17:07.178Z,1.23
2022-09-17T11:19:26.794Z,1.08
2022-09-17T11:21:37.040Z,1.52
2022-09-17T11:23:57.030Z,1.15
2022-09-17T11:26:08.355Z,0.90
2022-09-17T11:28:19.104Z,0.70
2022-09-17T11:30:24.312Z,1.02
2022-09-17T11:32:50.407Z,1.38
2022-09-17T11:35:07.982Z,1.05
2022-09-17T11:37:20.644Z,0.90
2022-09-17T11:39:28.002Z,0.80
2022-09-17T11:41:33.580Z,0.80
2022-09-17T11:43:41.098Z,1.10
2022-09-17T11:45:52.283Z,0.75
2022-09-17T11:48:16.998Z,0.75
2022-09-17T11:50:25.735Z,0.70
2022-09-17T11:52:32.424Z,0.75
2022-09-17T11:54:40.508Z,0.85
2022-09-17T11:56:45.794Z,0.60
2022-09-17T11:58:53.547Z,0.63
2022-09-17T12:01:32.635Z,0.68
2022-09-17T12:03:50.670Z,0.77
2022-09-17T12:05:59.526Z,0.50
2022-09-17T12:08:14.480Z,0.90
2022-09-17T12:10:19.703Z,0.50
2022-09-17T12:12:47.783Z,0.60
2022-09-17T12:14:59.124Z,0.82
2022-09-17T12:17:02.641Z,1.00
2022-09-17T12:19:23.743Z,0.88
2022-09-17T12:21:46.139Z,0.70
2022-09-17T12:24:10.586Z,1.13
2022-09-17T12:26:56.186Z,0.60
2022-09-17T12:29:09.004Z,0.90
2022-09-17T12:31:31.400Z,0.80
2022-09-17T12:33:41.190Z,0.70
2022-09-17T12:36:05.234Z,0.60
2022-09-17T12:38:27.123Z,0.60
2022-09-17T12:40:30.902Z,0.57
2022-09-17T12:42:54.411Z,0.60
2022-09-17T12:45:12.730Z,0.77
2022-09-17T12:47:39.525Z,0.68
2022-09-17T12:50:07.599Z,0.63
2022-09-17T12:52:39.039Z,0.40
2022-09-17T12:54:46.485Z,0.77
2022-09-17T12:57:12.009Z,0.68
2022-09-17T12:59:19.281Z,0.68
2022-09-17T13:01:41.433Z,0.55
2022-09-17T13:03:47.119Z,0.77
2022-09-17T13:06:09.143Z,0.80
2022-09-17T13:08:26.222Z,0.80
2022-09-17T13:10:47.242Z,0.57
2022-09-17T13:13:10.294Z,0.70
2022-09-17T13:15:36.778Z,0.50
2022-09-17T13:17:52.358Z,0.60
2022-09-17T13:20:14.679Z,0.80
2022-09-17T13:22:27.480Z,0.55
2022-09-17T13:24:31.286Z,0.40
2022-09-17T13:26:36.686Z,0.65
2022-09-17T13:28:49.669Z,0.57
2022-09-17T13:30:58.221Z,0.50
2022-09-17T13:33:00.389Z,0.40
2022-09-17T13:35:14.563Z,0.57
2022-09-17T13:37:20.262Z,0.98
2022-09-17T13:39:46.799Z,0.43
2022-09-17T13:41:48.412Z,0.50
2022-09-17T13:43:55.462Z,0.70
2022-09-17T13:45:59.870Z,0.63
2022-09-17T13:48:11.187Z,0.40
2022-09-17T13:50:28.626Z,0.50
2022-09-17T13:52:38.078Z,0.60
2022-09-17T13:54:40.066Z,0.60
2022-09-17T13:56:50.050Z,0.77
2022-09-17T13:58:51.928Z,0.60
2022-09-17T14:01:00.505Z,0.70
2022-09-17T14:03:45.863Z,0.60
2022-09-17T14:05:47.873Z,0.60
2022-09-17T14:07:51.256Z,0.70
2022-09-17T14:10:17.295Z,1.05
2022-09-17T14:12:44.842Z,0.75
2022-09-17T14:14:52.115Z,0.85
2022-09-17T14:16:53.860Z,0.65
2022-09-17T14:19:00.330Z,1.10
2022-09-17T14:21:09.291Z,1.20
2022-09-17T14:23:12.707Z,1.33
2022-09-17T14:25:19.325Z,1.05
2022-09-17T14:27:47.619Z,0.95
2022-09-17T14:30:01.399Z,0.93
2022-09-17T14:32:03.337Z,0.70
2022-09-17T14:34:14.431Z,1.30
2022-09-17T14:36:19.326Z,0.80
2022-09-17T14:38:32.599Z,0.60
2022-09-17T14:40:34.640Z,0.60
2022-09-17T14:42:37.389Z,1.02
2022-09-17T14:44:48.440Z,1.10
2022-09-17T14:47:02.890Z,0.70
2022-09-17T14:49:23.466Z,0.80
2022-09-17T14:51:27.173Z,0.70
2022-09-17T14:53:28.832Z,0.70
2022-09-17T14:55:33.271Z,0.68
2022-09-17T14:57:35.585Z,0.80
2022-09-17T14:59:55.192Z,0.60
2022-09-17T15:01:57.318Z,0.68
2022-09-17T15:04:14.338Z,0.50
2022-09-17T15:06:21.434Z,0.50
2022-09-17T15:08:25.938Z,0.80
2022-09-17T15:10:27.665Z,0.70
2022-09-17T15:12:29.983Z,1.02
2022-09-17T15:14:34.101Z,0.60
2022-09-17T15:16:36.733Z,0.43
2022-09-17T15:18:42.108Z,0.50
2022-09-17T15:20:47.275Z,0.50
2022-09-17T15:22:55.550Z,0.65
2022-09-17T15:24:58.763Z,0.55
2022-09-17T15:27:15.654Z,0.50
2022-09-17T15:29:22.783Z,0.57
2022-09-17T15:31:24.613Z,0.57
2022-09-17T15:33:27.376Z,0.52
2022-09-17T15:35:33.305Z,0.63
2022-09-17T15:37:34.972Z,0.43
2022-09-17T15:39:42.287Z,0.50
2022-09-17T15:41:43.950Z,0.43
2022-09-17T15:43:46.918Z,0.52
2022-09-17T15:45:48.881Z,0.60
2022-09-17T15:48:01.132Z,0.52
2022-09-17T15:50:33.191Z,0.40
2022-09-17T15:52:35.070Z,0.50
2022-09-17T15:54:37.828Z,0.65
2022-09-17T15:56:40.635Z,0.70
2022-09-17T15:58:42.215Z,0.50
2022-09-17T16:00:44.211Z,0.80
2022-09-17T16:02:46.435Z,0.90
2022-09-17T16:04:52.757Z,0.63
2022-09-17T16:06:57.185Z,0.73
2022-09-17T16:09:03.347Z,0.70
2022-09-17T16:11:05.326Z,0.70
2022-09-17T16:13:07.128Z,0.70
2022-09-17T16:15:09.183Z,0.82
2022-09-17T16:17:23.186Z,0.80
2022-09-17T16:19:24.926Z,0.77
2022-09-17T16:21:26.899Z,0.85
2022-09-17T16:23:28.574Z,0.68
2022-09-17T16:25:30.778Z,0.80
2022-09-17T16:27:39.485Z,0.70
2022-09-17T16:29:41.127Z,0.77
2022-09-17T16:31:44.749Z,0.90
2022-09-17T16:33:46.472Z,0.80
2022-09-17T16:35:48.238Z,1.00
2022-09-17T16:37:58.948Z,0.80
2022-09-17T16:40:01.097Z,0.85
2022-09-17T16:42:02.910Z,0.90
2022-09-17T16:44:04.615Z,0.80
2022-09-17T16:46:10.905Z,0.77
2022-09-17T16:48:12.681Z,0.55
2022-09-17T16:50:16.492Z,0.70
2022-09-17T16:52:18.840Z,0.57
2022-09-17T16:54:20.454Z,0.60
2022-09-17T16:56:22.224Z,0.70
2022-09-17T16:58:26.522Z,0.82
2022-09-17T17:00:28.787Z,0.68
2022-09-17T17:02:30.540Z,0.80
2022-09-17T17:04:32.205Z,0.70
2022-09-17T17:06:33.804Z,0.70
2022-09-17T17:08:35.506Z,0.82
2022-09-17T17:10:39.943Z,0.65
2022-09-17T17:12:41.604Z,0.70
2022-09-17T17:14:44.554Z,0.57
2022-09-17T17:16:46.163Z,0.98
2022-09-17T17:18:48.006Z,0.90
2022-09-17T17:20:49.717Z,0.82
2022-09-17T17:22:52.094Z,1.02
2022-09-17T17:24:53.718Z,0.90
2022-09-17T17:26:55.354Z,0.95
2022-09-17T17:28:57.045Z,1.00
2022-09-17T17:30:58.981Z,0.60
2022-09-17T17:33:01.101Z,0.90
2022-09-17T17:35:03.348Z,0.90
2022-09-17T17:37:05.061Z,0.90
2022-09-17T17:39:06.851Z,0.70
2022-09-17T17:41:15.104Z,0.90
2022-09-17T17:43:19.495Z,1.00
2022-09-17T17:45:21.374Z,0.88
2022-09-17T17:47:23.019Z,0.80
2022-09-17T17:49:24.680Z,0.70
2022-09-17T17:51:27.275Z,0.80
2022-09-17T17:53:29.247Z,0.68
2022-09-17T17:55:31.091Z,0.70
2022-09-17T17:57:32.800Z,0.60
2022-09-17T17:59:34.445Z,0.60
2022-09-17T18:01:38.013Z,0.63
2022-09-17T18:03:39.877Z,0.90
2022-09-17T18:05:41.555Z,0.85
2022-09-17T18:07:43.438Z,0.95
2022-09-17T18:09:45.120Z,1.00
2022-09-17T18:11:46.816Z,1.23
2022-09-17T18:13:52.565Z,1.00
2022-09-17T18:15:56.400Z,1.27
2022-09-17T18:17:58.115Z,1.30
2022-09-17T18:19:59.829Z,2.95
2022-09-17T18:22:01.848Z,7.13
2022-09-17T18:24:03.960Z,5.90
2022-09-17T18:26:07.626Z,5.70
2022-09-17T18:28:09.361Z,4.75
2022-09-17T18:30:11.670Z,2.00
2022-09-17T18:32:13.388Z,1.63
2022-09-17T18:34:16.367Z,1.00
2022-09-17T18:36:18.035Z,1.00
2022-09-17T18:38:19.664Z,0.88
2022-09-17T18:40:21.942Z,0.80
2022-09-17T18:42:23.631Z,0.95
2022-09-17T18:44:25.340Z,1.08
2022-09-17T18:46:27.965Z,0.82
2022-09-17T18:48:35.585Z,0.90
2022-09-17T18:50:38.175Z,1.17
2022-09-17T18:52:39.970Z,1.38
2022-09-17T18:54:41.547Z,0.50
2022-09-17T18:56:43.121Z,1.05
2022-09-17T18:58:49.077Z,1.60
2022-09-17T19:00:50.846Z,0.80
2022-09-17T19:02:52.750Z,0.77
2022-09-17T19:04:54.705Z,1.00
2022-09-17T19:06:56.387Z,0.90
2022-09-17T19:09:01.833Z,1.20
2022-09-17T19:11:04.955Z,0.98
2022-09-17T19:13:06.736Z,1.00
2022-09-17T19:15:09.975Z,1.58
2022-09-17T19:17:11.580Z,0.73
2022-09-17T19:19:13.218Z,1.00
2022-09-17T19:21:17.144Z,1.00
2022-09-17T19:23:18.967Z,1.17
2022-09-17T19:25:20.824Z,0.90
2022-09-17T19:27:22.605Z,0.90
2022-09-17T19:29:24.254Z,0.90
2022-09-17T19:31:26.513Z,0.95
2022-09-17T19:33:28.357Z,0.80
2022-09-17T19:35:30.085Z,1.00
2022-09-17T19:37:31.866Z,0.90
2022-09-17T19:39:34.262Z,1.05
2022-09-17T19:41:36.344Z,1.13
2022-09-17T19:43:38.385Z,1.02
2022-09-17T19:45:39.998Z,1.13
2022-09-17T19:47:41.643Z,1.73
2022-09-17T19:49:45.783Z,1.10
2022-09-17T19:51:47.388Z,1.17
2022-09-17T19:53:49.478Z,0.82
2022-09-17T19:55:51.336Z,1.70
2022-09-17T19:57:55.909Z,1.50
2022-09-17T20:00:00.380Z,1.27
2022-09-17T20:02:02.237Z,1.13
2022-09-17T20:04:04.296Z,1.35
2022-09-17T20:06:07.913Z,0.90
2022-09-17T20:08:09.573Z,1.30
2022-09-17T20:10:11.223Z,1.20
2022-09-17T20:12:12.997Z,0.98
2022-09-17T20:14:15.065Z,0.80
2022-09-17T20:16:19.836Z,1.00
2022-09-17T20:18:23.642Z,1.65
2022-09-17T20:20:28.534Z,1.13
2022-09-17T20:22:30.187Z,1.02
2022-09-17T20:24:31.805Z,1.67
2022-09-17T20:26:35.173Z,3.17
2022-09-17T20:28:36.906Z,2.10
2022-09-17T20:30:38.628Z,2.80
2022-09-17T20:32:40.257Z,3.45
2022-09-17T20:34:41.863Z,2.78
2022-09-17T20:36:43.479Z,1.40
2022-09-17T20:41:11.010Z,1.92
2022-09-17T20:43:12.583Z,1.52
2022-09-17T20:45:14.169Z,1.30
2022-09-17T20:47:15.773Z,1.23
2022-09-17T20:49:17.424Z,1.23
2022-09-17T20:51:21.505Z,1.52
2022-09-17T20:53:23.797Z,1.50
2022-09-17T20:55:25.549Z,1.33
2022-09-17T20:57:27.173Z,1.17
2022-09-17T20:59:44.897Z,1.35
2022-09-17T21:01:49.769Z,1.00
2022-09-17T21:03:53.312Z,0.90
2022-09-17T21:05:54.965Z,0.90
2022-09-17T21:07:57.379Z,1.23
2022-09-17T21:09:59.007Z,0.85
2022-09-17T21:12:00.659Z,1.20
2022-09-17T21:14:02.567Z,1.83
2022-09-17T21:16:05.119Z,1.10
2022-09-17T21:18:06.979Z,1.25
2022-09-17T21:20:08.899Z,1.33
2022-09-17T21:22:10.654Z,1.55
2022-09-17T21:24:12.441Z,1.20
2022-09-17T21:26:16.534Z,1.73
2022-09-17T21:28:21.872Z,1.00
2022-09-17T21:30:25.142Z,1.30
2022-09-17T21:32:26.814Z,1.02
2022-09-17T21:34:28.715Z,1.45
2022-09-17T21:36:33.265Z,1.10
2022-09-17T21:38:35.184Z,1.17
2022-09-17T21:40:36.881Z,1.30
2022-09-17T21:42:38.964Z,1.20
2022-09-17T21:44:40.680Z,1.20
2022-09-17T21:46:43.104Z,1.23
2022-09-17T21:48:49.442Z,1.30
2022-09-17T21:50:51.814Z,0.90
2022-09-17T21:52:53.559Z,1.15
2022-09-17T21:54:55.219Z,1.00
2022-09-17T21:56:56.945Z,0.93
2022-09-17T21:59:01.025Z,1.40
2022-09-17T22:01:10.397Z,1.20
2022-09-17T22:03:12.103Z,0.90
2022-09-17T22:05:13.895Z,1.00
2022-09-17T22:07:16.708Z,1.00
2022-09-17T22:09:21.309Z,1.00
2022-09-17T22:11:34.778Z,0.93
2022-09-17T22:13:36.706Z,1.35
2022-09-17T22:15:38.463Z,1.35
2022-09-17T22:17:40.185Z,1.25
2022-09-17T22:19:41.824Z,1.10
2022-09-17T22:21:46.631Z,1.25
2022-09-17T22:23:49.809Z,1.40
2022-09-17T22:26:01.395Z,1.08
2022-09-17T22:28:20.611Z,1.30
2022-09-17T22:30:23.590Z,1.23
2022-09-17T22:32:25.382Z,1.27
2022-09-17T22:34:27.081Z,1.30
2022-09-17T22:36:28.957Z,1.05
2022-09-17T22:38:30.652Z,1.33
2022-09-17T22:40:32.459Z,0.98
2022-09-17T22:42:34.122Z,0.90
2022-09-17T22:44:35.865Z,1.10
2022-09-17T22:46:41.804Z,1.30
2022-09-17T22:48:43.915Z,1.00
2022-09-17T22:50:52.188Z,1.27
2022-09-17T22:52:53.815Z,1.20
2022-09-17T22:54:55.422Z,1.35
2022-09-17T22:56:57.485Z,1.75
2022-09-17T22:58:59.796Z,1.52
2022-09-17T23:01:07.549Z,1.20
2022-09-17T23:03:09.296Z,1.40
2022-09-17T23:05:11.002Z,1.30
2022-09-17T23:07:12.700Z,1.42
2022-09-17T23:09:14.547Z,0.98
2022-09-17T23:11:21.704Z,1.48
2022-09-17T23:13:23.383Z,1.27
2022-09-17T23:15:27.478Z,1.35
2022-09-17T23:17:29.576Z,1.27
2022-09-17T23:19:31.322Z,1.10
2022-09-17T23:21:33.168Z,1.05
2022-09-17T23:23:36.342Z,1.00
2022-09-17T23:25:37.994Z,1.30
2022-09-17T23:27:39.615Z,1.25
2022-09-17T23:29:41.724Z,1.27
2022-09-17T23:31:43.574Z,1.10
2022-09-17T23:33:45.794Z,1.60
2022-09-17T23:35:47.409Z,1.33
2022-09-17T23:37:49.359Z,1.65
2022-09-17T23:39:51.154Z,1.20
2022-09-17T23:41:53.038Z,1.20
2022-09-17T23:43:57.214Z,1.10
2022-09-17T23:45:58.855Z,1.02
2022-09-17T23:48:00.513Z,1.55
2022-09-17T23:50:02.762Z,1.08
2022-09-17T23:52:04.824Z,1.25
2022-09-17T23:54:07.401Z,1.30
2022-09-17T23:56:13.025Z,1.30
2022-09-17T23:58:14.896Z,1.20
